Terminal Aerodrome Forecast
Issued by NWS Omaha/Valley, NE

Home | Current Version | Previous Version | Graphics & Text | Print | Product List | Glossary On
Versions: 1 2 3 4 5 6 7 8 9 10 11 12 13 14 15 16 17 18 19 20 21 22 23 24 25 26 27 28 29 30 31 32
000
FTUS43 KOAX 201735
TAFOFK
TAF
KOFK 201735Z 2018/2118 18016G26KT P6SM SCT250
     FM210300 18017KT P6SM VCSH SCT025 OVC100
     FM211200 22015G23KT P6SM VCSH SCT015 BKN030
     FM211700 30015G23KT P6SM VCSH SCT025 BKN050=

USA.gov is the U.S. government's official web portal to all federal, state and local government web resources and services.